Time,TemperatureF,DewpointF,PressureIn,WindDirection,WindDirectionDegrees,WindSpeedMPH,WindSpeedGustMPH,Humidity,HourlyPrecipIn,Conditions,Clouds,dailyrainin,SolarRadiationWatts/m^2,SoftwareType,DateUTC
2013-01-14 00:03:00,29.0,25.0,-100.00,NNE,21,8.0,13.0,86,0.00,,,2.42,0.000000,,2013-01-14 06:03:00,
2013-01-14 00:12:00,29.0,25.0,-100.00,NNE,21,8.0,13.0,86,0.00,,,2.42,0.000000,,2013-01-14 06:12:00,
2013-01-14 00:33:00,29.0,25.0,-100.00,NNE,25,8.0,13.0,85,0.00,,,2.42,0.000000,,2013-01-14 06:33:00,
2013-01-14 00:43:00,29.0,25.0,-100.00,NNE,25,8.0,13.0,85,0.00,,,2.42,0.000000,,2013-01-14 06:43:00,
2013-01-14 00:53:00,29.0,25.0,-100.00,NNE,25,8.0,13.0,85,0.00,,,2.42,0.000000,,2013-01-14 06:53:00,
2013-01-14 01:02:00,29.0,25.0,-100.00,NNE,25,8.0,13.0,85,0.00,,,2.42,0.000000,,2013-01-14 07:02:00,
2013-01-14 01:12:00,29.0,25.0,-100.00,NNE,25,8.0,13.0,85,0.00,,,2.42,0.000000,,2013-01-14 07:12:00,
2013-01-14 01:33:00,28.0,24.0,-100.00,NNE,26,8.0,14.0,85,0.00,,,2.42,0.000000,,2013-01-14 07:33:00,
2013-01-14 01:43:00,28.0,24.0,-100.00,NNE,26,8.0,14.0,85,0.00,,,2.42,0.000000,,2013-01-14 07:43:00,
2013-01-14 01:53:00,28.0,24.0,-100.00,NNE,26,8.0,14.0,85,0.00,,,2.42,0.000000,,2013-01-14 07:53:00,
2013-01-14 02:02:00,28.0,24.0,-100.00,NNE,26,8.0,14.0,85,0.00,,,2.42,0.000000,,2013-01-14 08:02:00,
2013-01-14 02:12:00,28.0,24.0,-100.00,NNE,26,8.0,14.0,85,0.00,,,2.42,0.000000,,2013-01-14 08:12:00,
2013-01-14 02:43:00,26.0,21.0,-100.00,NNE,19,10.0,17.0,81,0.00,,,2.42,0.000000,,2013-01-14 08:43:00,
2013-01-14 02:53:00,26.0,21.0,-100.00,NNE,19,10.0,17.0,81,0.00,,,2.42,0.000000,,2013-01-14 08:53:00,
2013-01-14 03:02:00,26.0,21.0,-100.00,NNE,19,10.0,17.0,81,0.00,,,2.42,0.000000,,2013-01-14 09:02:00,
2013-01-14 03:12:00,26.0,21.0,-100.00,NNE,19,10.0,17.0,81,0.00,,,2.42,0.000000,,2013-01-14 09:12:00,
2013-01-14 03:34:00,26.0,21.0,-100.00,North,358,7.0,17.0,82,0.00,,,2.42,0.000000,,2013-01-14 09:34:00,
2013-01-14 03:43:00,26.0,21.0,-100.00,North,358,7.0,17.0,82,0.00,,,2.42,0.000000,,2013-01-14 09:43:00,
2013-01-14 03:53:00,26.0,21.0,-100.00,North,358,7.0,17.0,82,0.00,,,2.42,0.000000,,2013-01-14 09:53:00,
2013-01-14 04:02:00,26.0,21.0,-100.00,North,358,7.0,17.0,82,0.00,,,2.42,0.000000,,2013-01-14 10:02:00,
2013-01-14 04:12:00,26.0,21.0,-100.00,North,358,7.0,17.0,82,0.00,,,2.42,0.000000,,2013-01-14 10:12:00,
2013-01-14 04:43:00,26.0,22.0,-100.00,North,5,9.0,15.0,83,0.00,,,1.99,0.000000,,2013-01-14 10:43:00,
2013-01-14 04:53:00,26.0,22.0,-100.00,North,5,9.0,15.0,83,0.00,,,1.99,0.000000,,2013-01-14 10:53:00,
2013-01-14 05:02:00,26.0,22.0,-100.00,North,5,9.0,15.0,83,0.00,,,1.99,0.000000,,2013-01-14 11:02:00,
2013-01-14 05:12:00,26.0,22.0,-100.00,North,5,9.0,15.0,83,0.00,,,1.99,0.000000,,2013-01-14 11:12:00,
2013-01-14 05:43:00,25.0,20.0,-100.00,NNE,20,9.0,13.0,82,0.00,,,1.83,0.000000,,2013-01-14 11:43:00,
2013-01-14 05:53:00,25.0,20.0,-100.00,NNE,20,9.0,13.0,82,0.00,,,1.83,0.000000,,2013-01-14 11:53:00,
2013-01-14 06:03:00,25.0,20.0,-100.00,NNE,20,9.0,13.0,82,0.00,,,1.83,0.000000,,2013-01-14 12:03:00,
2013-01-14 06:12:00,25.0,20.0,-100.00,NNE,20,9.0,13.0,82,0.00,,,1.83,0.000000,,2013-01-14 12:12:00,
2013-01-14 06:33:00,25.0,20.0,-100.00,North,3,8.0,15.0,81,0.00,,,1.70,0.000000,,2013-01-14 12:33:00,
2013-01-14 06:43:00,25.0,20.0,-100.00,North,3,8.0,15.0,81,0.00,,,1.70,0.000000,,2013-01-14 12:43:00,
2013-01-14 06:53:00,25.0,20.0,-100.00,North,3,8.0,15.0,81,0.00,,,1.70,0.000000,,2013-01-14 12:53:00,
2013-01-14 07:03:00,25.0,20.0,-100.00,North,3,8.0,15.0,81,0.00,,,1.70,0.000000,,2013-01-14 13:03:00,
2013-01-14 07:12:00,25.0,20.0,-100.00,North,3,8.0,15.0,81,0.00,,,1.70,0.000000,,2013-01-14 13:12:00,
2013-01-14 07:43:00,25.0,20.0,-100.00,NNE,17,9.0,16.0,82,0.00,,,1.58,1.000000,,2013-01-14 13:43:00,
2013-01-14 07:53:00,25.0,20.0,-100.00,NNE,17,9.0,16.0,82,0.00,,,1.58,1.000000,,2013-01-14 13:53:00,
2013-01-14 08:03:00,25.0,20.0,-100.00,NNE,17,9.0,16.0,82,0.00,,,1.58,1.000000,,2013-01-14 14:03:00,
2013-01-14 08:13:00,25.0,20.0,-100.00,NNE,17,9.0,16.0,82,0.00,,,1.58,1.000000,,2013-01-14 14:13:00,
2013-01-14 08:33:00,24.0,20.0,-100.00,NNE,22,11.0,18.0,84,0.00,,,1.44,18.000000,,2013-01-14 14:33:00,
2013-01-14 08:43:00,24.0,20.0,-100.00,NNE,22,11.0,18.0,84,0.00,,,1.44,18.000000,,2013-01-14 14:43:00,
2013-01-14 08:53:00,24.0,20.0,-100.00,NNE,22,11.0,18.0,84,0.00,,,1.44,18.000000,,2013-01-14 14:53:00,
2013-01-14 09:03:00,24.0,20.0,-100.00,NNE,22,11.0,18.0,84,0.00,,,1.44,18.000000,,2013-01-14 15:03:00,
2013-01-14 09:12:00,24.0,20.0,-100.00,NNE,22,11.0,18.0,84,0.00,,,1.44,18.000000,,2013-01-14 15:12:00,
2013-01-14 09:34:00,25.0,21.0,-100.00,NE,34,9.0,14.0,83,0.00,,,1.24,66.000000,,2013-01-14 15:34:00,
2013-01-14 09:43:00,25.0,21.0,-100.00,NE,34,9.0,14.0,83,0.00,,,1.24,66.000000,,2013-01-14 15:43:00,
2013-01-14 09:53:00,25.0,21.0,-100.00,NE,34,9.0,14.0,83,0.00,,,1.24,66.000000,,2013-01-14 15:53:00,
2013-01-14 10:03:00,25.0,21.0,-100.00,NE,34,9.0,14.0,83,0.00,,,1.24,66.000000,,2013-01-14 16:03:00,
2013-01-14 10:12:00,25.0,21.0,-100.00,NE,34,9.0,14.0,83,0.00,,,1.24,66.000000,,2013-01-14 16:12:00,
2013-01-14 10:33:00,26.0,20.0,-100.00,NNE,32,9.0,15.0,79,0.00,,,0.96,157.000000,,2013-01-14 16:33:00,
2013-01-14 10:43:00,26.0,20.0,-100.00,NNE,32,9.0,15.0,79,0.00,,,0.96,157.000000,,2013-01-14 16:43:00,
2013-01-14 10:53:00,26.0,20.0,-100.00,NNE,32,9.0,15.0,79,0.00,,,0.96,157.000000,,2013-01-14 16:53:00,
2013-01-14 11:03:00,26.0,20.0,-100.00,NNE,32,9.0,15.0,79,0.00,,,0.96,157.000000,,2013-01-14 17:03:00,
2013-01-14 11:12:00,26.0,20.0,-100.00,NNE,32,9.0,15.0,79,0.00,,,0.96,157.000000,,2013-01-14 17:12:00,
2013-01-14 11:43:00,28.0,22.0,-100.00,NNE,27,9.0,14.0,77,0.05,,,0.72,235.000000,,2013-01-14 17:43:00,
2013-01-14 11:54:00,28.0,22.0,-100.00,NNE,27,9.0,14.0,77,0.05,,,0.72,235.000000,,2013-01-14 17:54:00,
2013-01-14 12:03:00,28.0,22.0,-100.00,NNE,27,9.0,14.0,77,0.05,,,0.72,235.000000,,2013-01-14 18:03:00,
2013-01-14 12:12:00,28.0,22.0,-100.00,NNE,27,9.0,14.0,77,0.05,,,0.72,235.000000,,2013-01-14 18:12:00,
2013-01-14 12:33:00,28.0,21.0,-100.00,NE,48,9.0,16.0,75,0.00,,,0.60,202.000000,,2013-01-14 18:33:00,
2013-01-14 12:43:00,28.0,21.0,-100.00,NE,48,9.0,16.0,75,0.00,,,0.60,202.000000,,2013-01-14 18:43:00,
2013-01-14 12:53:00,28.0,21.0,-100.00,NE,48,9.0,16.0,75,0.00,,,0.60,202.000000,,2013-01-14 18:53:00,
2013-01-14 13:03:00,28.0,21.0,-100.00,NE,48,9.0,16.0,75,0.00,,,0.60,202.000000,,2013-01-14 19:03:00,
2013-01-14 13:12:00,28.0,21.0,-100.00,NE,48,9.0,16.0,75,0.00,,,0.60,202.000000,,2013-01-14 19:12:00,
2013-01-14 13:43:00,30.0,20.0,-100.00,NW,321,9.0,18.0,67,0.00,,,0.44,110.000000,,2013-01-14 19:43:00,
2013-01-14 13:53:00,30.0,20.0,-100.00,NW,321,9.0,18.0,67,0.00,,,0.44,110.000000,,2013-01-14 19:53:00,
2013-01-14 14:03:00,30.0,20.0,-100.00,NW,321,9.0,18.0,67,0.00,,,0.44,110.000000,,2013-01-14 20:03:00,
2013-01-14 14:13:00,30.0,20.0,-100.00,NW,321,9.0,18.0,67,0.00,,,0.44,110.000000,,2013-01-14 20:13:00,
2013-01-14 14:33:00,29.0,21.0,-100.00,North,9,8.0,17.0,71,0.00,,,0.32,46.000000,,2013-01-14 20:33:00,
2013-01-14 14:43:00,29.0,21.0,-100.00,North,9,8.0,17.0,71,0.00,,,0.32,46.000000,,2013-01-14 20:43:00,
2013-01-14 14:53:00,29.0,21.0,-100.00,North,9,8.0,17.0,71,0.00,,,0.32,46.000000,,2013-01-14 20:53:00,
2013-01-14 15:03:00,29.0,21.0,-100.00,North,9,8.0,17.0,71,0.00,,,0.32,46.000000,,2013-01-14 21:03:00,
2013-01-14 15:12:00,29.0,21.0,-100.00,North,9,8.0,17.0,71,0.00,,,0.32,46.000000,,2013-01-14 21:12:00,
2013-01-14 15:43:00,29.0,21.0,-100.00,ENE,57,9.0,16.0,72,0.00,,,0.16,23.000000,,2013-01-14 21:43:00,
2013-01-14 15:53:00,29.0,21.0,-100.00,ENE,57,9.0,16.0,72,0.00,,,0.16,23.000000,,2013-01-14 21:53:00,
2013-01-14 16:03:00,29.0,21.0,-100.00,ENE,57,9.0,16.0,72,0.00,,,0.16,23.000000,,2013-01-14 22:03:00,
2013-01-14 16:12:00,29.0,21.0,-100.00,ENE,57,9.0,16.0,72,0.00,,,0.16,23.000000,,2013-01-14 22:12:00,
2013-01-14 16:43:00,29.0,22.0,-100.00,NE,37,9.0,15.0,75,0.00,,,-99.99,25.000000,,2013-01-14 22:43:00,
2013-01-14 16:53:00,29.0,22.0,-100.00,NE,37,9.0,15.0,75,0.00,,,-99.99,25.000000,,2013-01-14 22:53:00,
2013-01-14 17:03:00,29.0,22.0,-100.00,NE,37,9.0,15.0,75,0.00,,,-99.99,25.000000,,2013-01-14 23:03:00,
2013-01-14 17:12:00,29.0,22.0,-100.00,NE,37,9.0,15.0,75,0.00,,,-99.99,25.000000,,2013-01-14 23:12:00,
2013-01-14 17:33:00,28.0,21.0,-100.00,NE,48,8.0,11.0,74,0.00,,,0.06,5.000000,,2013-01-14 23:33:00,
2013-01-14 17:43:00,28.0,21.0,-100.00,NE,48,8.0,11.0,74,0.00,,,0.06,5.000000,,2013-01-14 23:43:00,
2013-01-14 17:53:00,28.0,21.0,-100.00,NE,48,8.0,11.0,74,0.00,,,0.06,5.000000,,2013-01-14 23:53:00,
2013-01-14 18:03:00,28.0,21.0,-100.00,NE,48,8.0,11.0,74,0.00,,,0.06,5.000000,,2013-01-15 00:03:00,
2013-01-14 18:12:00,28.0,21.0,-100.00,NE,48,8.0,11.0,74,0.00,,,0.06,5.000000,,2013-01-15 00:12:00,
2013-01-14 18:43:00,28.0,22.0,-100.00,NE,40,7.0,14.0,77,0.00,,,0.05,0.000000,,2013-01-15 00:43:00,
2013-01-14 18:53:00,28.0,22.0,-100.00,NE,40,7.0,14.0,77,0.00,,,0.05,0.000000,,2013-01-15 00:53:00,
2013-01-14 19:02:00,28.0,22.0,-100.00,NE,40,7.0,14.0,77,0.00,,,0.05,0.000000,,2013-01-15 01:02:00,
2013-01-14 19:12:00,28.0,22.0,-100.00,NE,40,7.0,14.0,77,0.00,,,0.05,0.000000,,2013-01-15 01:12:00,
2013-01-14 19:43:00,27.0,22.0,-100.00,NNE,33,6.0,12.0,82,0.00,,,0.05,0.000000,,2013-01-15 01:43:00,
2013-01-14 19:52:00,27.0,22.0,-100.00,NNE,33,6.0,12.0,82,0.00,,,0.05,0.000000,,2013-01-15 01:52:00,
2013-01-14 20:02:00,27.0,22.0,-100.00,NNE,33,6.0,12.0,82,0.00,,,0.05,0.000000,,2013-01-15 02:02:00,
2013-01-14 20:12:00,27.0,22.0,-100.00,NNE,33,6.0,12.0,82,0.00,,,0.05,0.000000,,2013-01-15 02:12:00,
2013-01-14 20:43:00,26.0,22.0,-100.00,NNE,19,7.0,10.0,85,0.00,,,0.05,0.000000,,2013-01-15 02:43:00,
2013-01-14 20:53:00,26.0,22.0,-100.00,NNE,19,7.0,10.0,85,0.00,,,0.05,0.000000,,2013-01-15 02:53:00,
2013-01-14 21:02:00,26.0,22.0,-100.00,NNE,19,7.0,10.0,85,0.00,,,0.05,0.000000,,2013-01-15 03:02:00,
2013-01-14 21:12:00,26.0,22.0,-100.00,NNE,19,7.0,10.0,85,0.00,,,0.05,0.000000,,2013-01-15 03:12:00,
2013-01-14 21:33:00,26.0,23.0,-100.00,NNE,29,6.0,9.0,87,0.00,,,0.05,0.000000,,2013-01-15 03:33:00,
2013-01-14 21:43:00,26.0,23.0,-100.00,NNE,29,6.0,9.0,87,0.00,,,0.05,0.000000,,2013-01-15 03:43:00,
2013-01-14 21:53:00,26.0,23.0,-100.00,NNE,29,6.0,9.0,87,0.00,,,0.05,0.000000,,2013-01-15 03:53:00,
2013-01-14 22:02:00,26.0,23.0,-100.00,NNE,29,6.0,9.0,87,0.00,,,0.05,0.000000,,2013-01-15 04:02:00,
2013-01-14 22:12:00,26.0,23.0,-100.00,NNE,29,6.0,9.0,87,0.00,,,0.05,0.000000,,2013-01-15 04:12:00,
2013-01-14 22:42:00,26.0,23.0,-100.00,NNE,13,6.0,9.0,87,0.00,,,0.05,0.000000,,2013-01-15 04:42:00,
2013-01-14 22:52:00,26.0,23.0,-100.00,NNE,13,6.0,9.0,87,0.00,,,0.05,0.000000,,2013-01-15 04:52:00,
2013-01-14 23:03:00,26.0,23.0,-100.00,NNE,13,6.0,9.0,87,0.00,,,0.05,0.000000,,2013-01-15 05:03:00,
2013-01-14 23:12:00,26.0,23.0,-100.00,NNE,13,6.0,9.0,87,0.00,,,0.05,0.000000,,2013-01-15 05:12:00,
2013-01-14 23:33:00,25.0,22.0,-100.00,North,8,6.0,10.0,89,0.00,,,0.05,0.000000,,2013-01-15 05:33:00,
2013-01-14 23:42:00,25.0,22.0,-100.00,North,8,6.0,10.0,89,0.00,,,0.05,0.000000,,2013-01-15 05:42:00,
2013-01-14 23:53:00,25.0,22.0,-100.00,North,8,6.0,10.0,89,0.00,,,0.05,0.000000,,2013-01-15 05:53:00,